createdAt,value
2023-04-12T00:00:17.802Z,6.05
2023-04-12T00:02:45.200Z,4.47
2023-04-12T00:05:13.986Z,4.10
2023-04-12T00:07:42.886Z,6.85
2023-04-12T00:10:10.363Z,3.75
2023-04-12T00:12:37.612Z,5.68
2023-04-12T00:15:07.828Z,9.30
2023-04-12T00:17:35.690Z,11.18
2023-04-12T00:20:12.067Z,10.70
2023-04-12T00:22:41.489Z,6.90
2023-04-12T00:25:09.682Z,8.48
2023-04-12T00:27:37.188Z,6.63
2023-04-12T00:30:04.923Z,10.10
2023-04-12T00:32:32.297Z,12.43
2023-04-12T00:34:59.737Z,10.73
2023-04-12T00:37:27.190Z,5.82
2023-04-12T00:39:54.413Z,15.73
2023-04-12T00:42:21.669Z,5.68
2023-04-12T00:44:48.889Z,6.18
2023-04-12T00:47:17.307Z,11.63
2023-04-12T00:49:44.671Z,8.23
2023-04-12T00:52:14.621Z,6.15
2023-04-12T00:54:43.272Z,8.20
2023-04-12T00:57:11.770Z,12.27
2023-04-12T00:59:39.166Z,7.22
2023-04-12T01:02:07.430Z,9.18
2023-04-12T01:04:38.120Z,3.28
2023-04-12T01:07:45.103Z,7.68
2023-04-12T01:10:28.984Z,11.88
2023-04-12T01:13:12.393Z,5.35
2023-04-12T01:15:51.566Z,11.02
2023-04-12T01:18:29.171Z,9.40
2023-04-12T01:21:10.755Z,8.75
2023-04-12T01:23:58.484Z,8.45
2023-04-12T01:26:52.368Z,5.82
2023-04-12T01:29:22.394Z,8.73
2023-04-12T01:31:58.057Z,5.70
2023-04-12T01:34:28.429Z,6.53
2023-04-12T01:36:58.422Z,9.07
2023-04-12T01:39:26.342Z,4.22
2023-04-12T01:41:53.592Z,6.05
2023-04-12T01:44:20.823Z,5.13
2023-04-12T01:46:48.838Z,10.95
2023-04-12T01:49:17.951Z,6.45
2023-04-12T01:51:50.955Z,9.18
2023-04-12T01:54:23.313Z,5.85
2023-04-12T01:56:58.447Z,8.13
2023-04-12T01:59:30.512Z,9.65
2023-04-12T02:01:58.604Z,8.57
2023-04-12T02:04:27.899Z,7.05
2023-04-12T02:06:56.249Z,7.30
2023-04-12T02:09:24.144Z,7.85
2023-04-12T02:11:51.427Z,10.43
2023-04-12T02:14:19.173Z,9.95
2023-04-12T02:16:47.908Z,12.52
2023-04-12T02:19:15.276Z,9.15
2023-04-12T02:21:46.776Z,5.57
2023-04-12T02:26:45.029Z,7.90
2023-04-12T02:29:13.960Z,7.50
2023-04-12T02:31:41.580Z,12.50
2023-04-12T02:34:13.471Z,12.20
2023-04-12T02:36:49.784Z,5.90
2023-04-12T02:39:22.316Z,12.95
2023-04-12T02:41:51.896Z,9.57
2023-04-12T02:44:19.151Z,7.88
2023-04-12T02:46:58.415Z,8.27
2023-04-12T02:49:26.158Z,10.85
2023-04-12T02:51:55.037Z,8.88
2023-04-12T02:54:27.676Z,12.23
2023-04-12T02:56:56.707Z,6.90
2023-04-12T02:59:45.165Z,9.82
2023-04-12T03:02:17.378Z,10.55
2023-04-12T03:04:46.956Z,6.88
2023-04-12T03:07:19.749Z,11.00
2023-04-12T03:09:50.893Z,14.50
2023-04-12T03:12:20.729Z,8.20
2023-04-12T03:15:01.313Z,7.60
2023-04-12T03:17:29.038Z,6.25
2023-04-12T03:20:10.974Z,8.25
2023-04-12T03:22:44.836Z,8.88
2023-04-12T03:25:13.043Z,10.98
2023-04-12T03:27:46.322Z,8.75
2023-04-12T03:30:16.732Z,5.38
2023-04-12T03:32:45.143Z,8.45
2023-04-12T03:35:12.459Z,10.82
2023-04-12T03:37:43.368Z,10.65
2023-04-12T03:40:12.562Z,8.18
2023-04-12T03:42:44.366Z,8.32
2023-04-12T03:45:14.275Z,7.10
2023-04-12T03:47:46.177Z,10.00
2023-04-12T03:50:15.046Z,13.35
2023-04-12T03:52:50.620Z,9.18
2023-04-12T03:55:18.783Z,8.75
2023-04-12T03:57:48.999Z,13.77
2023-04-12T04:00:18.174Z,9.98
2023-04-12T04:02:47.588Z,8.63
2023-04-12T04:05:17.183Z,8.52
2023-04-12T04:07:45.867Z,9.23
2023-04-12T04:10:15.399Z,9.82
2023-04-12T04:12:44.346Z,9.07
2023-04-12T04:15:15.213Z,4.43
2023-04-12T04:17:43.190Z,8.35
2023-04-12T04:20:13.614Z,5.78
2023-04-12T04:22:44.727Z,7.57
2023-04-12T04:25:14.353Z,10.38
2023-04-12T04:27:46.568Z,7.45
2023-04-12T04:30:15.470Z,5.85
2023-04-12T04:32:46.054Z,10.73
2023-04-12T04:35:15.702Z,7.72
2023-04-12T04:37:57.758Z,11.55
2023-04-12T04:40:28.842Z,9.95
2023-04-12T04:42:57.916Z,6.93
2023-04-12T04:45:27.088Z,11.13
2023-04-12T04:47:55.420Z,10.00
2023-04-12T04:50:24.629Z,13.25
2023-04-12T04:52:53.460Z,13.70
2023-04-12T04:55:22.574Z,11.48
2023-04-12T04:57:50.585Z,7.00
2023-04-12T05:00:19.453Z,5.75
2023-04-12T05:02:53.735Z,9.50
2023-04-12T05:05:27.763Z,8.95
2023-04-12T05:08:02.467Z,11.32
2023-04-12T05:10:31.620Z,9.07
2023-04-12T05:13:02.639Z,10.90
2023-04-12T05:15:31.951Z,13.75
2023-04-12T05:18:00.071Z,6.57
2023-04-12T05:20:27.457Z,11.63
2023-04-12T05:22:54.704Z,10.45
2023-04-12T05:25:22.477Z,11.82
2023-04-12T05:28:01.363Z,8.00
2023-04-12T05:30:31.787Z,11.25
2023-04-12T05:32:59.342Z,9.07
2023-04-12T05:35:27.453Z,8.30
2023-04-12T05:37:59.352Z,8.00
2023-04-12T05:40:26.574Z,9.35
2023-04-12T05:42:54.920Z,7.28
2023-04-12T05:45:22.913Z,12.27
2023-04-12T05:47:50.295Z,9.45
2023-04-12T05:50:17.579Z,8.38
2023-04-12T05:52:44.904Z,9.57
2023-04-12T05:55:12.789Z,8.50
2023-04-12T05:57:44.459Z,7.97
2023-04-12T06:00:17.025Z,6.50
2023-04-12T06:02:46.404Z,9.80
2023-04-12T06:05:16.983Z,6.40
2023-04-12T06:07:49.044Z,9.45
2023-04-12T06:10:18.018Z,3.95
2023-04-12T06:12:48.955Z,5.32
2023-04-12T06:15:16.310Z,4.75
2023-04-12T06:17:43.832Z,6.32
2023-04-12T06:20:12.273Z,6.85
2023-04-12T06:22:39.869Z,8.73
2023-04-12T06:25:08.463Z,6.82
2023-04-12T06:27:36.058Z,4.28
2023-04-12T06:30:03.614Z,6.18
2023-04-12T06:32:34.276Z,6.07
2023-04-12T06:35:01.900Z,7.25
2023-04-12T06:37:29.234Z,6.10
2023-04-12T06:39:56.448Z,7.38
2023-04-12T06:42:24.299Z,8.18
2023-04-12T06:44:51.530Z,6.78
2023-04-12T06:47:18.794Z,3.78
2023-04-12T06:49:45.976Z,7.28
2023-04-12T06:52:13.252Z,7.60
2023-04-12T06:54:40.522Z,6.57
2023-04-12T06:57:11.470Z,7.47
2023-04-12T06:59:38.901Z,9.60
2023-04-12T07:02:07.748Z,9.43
2023-04-12T07:04:35.134Z,4.63
2023-04-12T07:07:02.427Z,6.72
2023-04-12T07:09:33.132Z,4.53
2023-04-12T07:14:28.659Z,5.28
2023-04-12T07:16:56.050Z,4.15
2023-04-12T07:19:23.374Z,5.85
2023-04-12T07:21:51.135Z,6.57
2023-04-12T07:24:18.399Z,4.50
2023-04-12T07:26:46.150Z,5.93
2023-04-12T07:29:13.406Z,7.53
2023-04-12T07:31:40.722Z,7.28
2023-04-12T07:34:08.243Z,6.15
2023-04-12T07:36:35.675Z,7.35
2023-04-12T07:39:02.858Z,8.05
2023-04-12T07:41:30.083Z,4.03
2023-04-12T07:43:57.272Z,4.68
2023-04-12T07:46:24.647Z,4.65
2023-04-12T07:48:51.922Z,5.10
2023-04-12T07:51:19.475Z,3.45
2023-04-12T07:53:48.534Z,5.55
2023-04-12T07:56:16.365Z,5.63
2023-04-12T07:58:43.686Z,10.30
2023-04-12T08:01:15.360Z,6.40
2023-04-12T08:03:42.962Z,5.50
2023-04-12T08:06:10.481Z,6.13
2023-04-12T08:08:37.792Z,7.22
2023-04-12T08:11:06.532Z,5.60
2023-04-12T08:13:34.421Z,5.95
2023-04-12T08:16:01.878Z,7.13
2023-04-12T08:18:29.464Z,4.47
2023-04-12T08:20:58.287Z,4.20
2023-04-12T08:23:26.778Z,8.50
2023-04-12T08:26:02.767Z,4.22
2023-04-12T08:28:31.111Z,3.42
2023-04-12T08:30:59.484Z,8.48
2023-04-12T08:33:27.177Z,6.88
2023-04-12T08:35:55.299Z,4.82
2023-04-12T08:38:30.502Z,5.45
2023-04-12T08:41:08.150Z,9.88
2023-04-12T08:43:38.293Z,4.30
2023-04-12T08:46:07.574Z,7.97
2023-04-12T08:48:36.268Z,5.22
2023-04-12T08:51:04.260Z,5.07
2023-04-12T08:53:31.795Z,3.35
2023-04-12T08:55:59.209Z,6.20
2023-04-12T08:58:26.496Z,5.90
2023-04-12T09:00:54.660Z,5.68
2023-04-12T09:03:22.136Z,3.70
2023-04-12T09:05:49.540Z,4.22
2023-04-12T09:08:17.613Z,6.03
2023-04-12T09:10:44.941Z,5.72
2023-04-12T09:13:12.389Z,4.40
2023-04-12T09:15:51.258Z,6.07
2023-04-12T09:18:18.732Z,4.00
2023-04-12T09:20:45.943Z,4.45
2023-04-12T09:23:22.077Z,5.10
2023-04-12T09:25:52.792Z,4.28
2023-04-12T09:28:27.070Z,7.72
2023-04-12T09:30:56.231Z,3.72
2023-04-12T09:33:33.875Z,5.22
2023-04-12T09:36:02.982Z,3.75
2023-04-12T09:38:31.594Z,4.15
2023-04-12T09:41:20.185Z,7.85
2023-04-12T09:43:48.751Z,4.38
2023-04-12T09:46:16.878Z,3.40
2023-04-12T09:48:55.220Z,4.47
2023-04-12T09:51:29.926Z,4.50
2023-04-12T09:54:02.405Z,4.70
2023-04-12T09:56:32.365Z,5.93
2023-04-12T09:59:04.722Z,4.10
2023-04-12T10:01:38.574Z,7.32
2023-04-12T10:04:08.751Z,11.35
2023-04-12T10:06:37.282Z,8.80
2023-04-12T10:09:05.503Z,5.10
2023-04-12T10:11:34.223Z,5.07
2023-04-12T10:14:06.120Z,7.85
2023-04-12T10:16:39.362Z,5.28
2023-04-12T10:19:07.504Z,4.47
2023-04-12T10:21:34.993Z,10.38
2023-04-12T10:24:02.420Z,4.07
2023-04-12T10:26:29.742Z,4.40
2023-04-12T10:29:22.867Z,4.55
2023-04-12T10:31:50.786Z,4.90
2023-04-12T10:34:18.735Z,3.63
2023-04-12T10:36:57.400Z,4.45
2023-04-12T10:39:43.781Z,4.55
2023-04-12T10:42:20.206Z,3.42
2023-04-12T10:44:47.773Z,4.43
2023-04-12T10:47:15.244Z,4.25
2023-04-12T10:50:21.561Z,4.05
2023-04-12T10:53:12.721Z,3.17
2023-04-12T10:55:41.196Z,7.35
2023-04-12T10:58:09.190Z,6.60
2023-04-12T11:00:58.436Z,3.45
2023-04-12T11:03:28.366Z,4.68
2023-04-12T11:06:16.157Z,4.63
2023-04-12T11:09:06.307Z,7.30
2023-04-12T11:11:35.015Z,6.45
2023-04-12T11:14:02.801Z,4.13
2023-04-12T11:16:30.051Z,4.53
2023-04-12T11:18:58.075Z,5.18
2023-04-12T11:21:25.647Z,7.95
2023-04-12T11:23:54.803Z,5.35
2023-04-12T11:26:22.661Z,7.60
2023-04-12T11:28:53.167Z,7.57
2023-04-12T11:31:21.596Z,7.03
2023-04-12T11:33:48.927Z,6.50
2023-04-12T11:36:17.676Z,10.73
2023-04-12T11:38:47.354Z,7.95
2023-04-12T11:41:14.782Z,7.30
2023-04-12T11:43:42.949Z,9.02
2023-04-12T11:46:10.679Z,6.13
2023-04-12T11:48:40.821Z,4.97
2023-04-12T11:51:31.638Z,6.03
2023-04-12T11:54:00.207Z,5.65
2023-04-12T11:56:29.762Z,8.63
2023-04-12T11:58:57.025Z,7.75
2023-04-12T12:01:24.463Z,5.88
2023-04-12T12:03:53.223Z,4.60
2023-04-12T12:06:21.731Z,5.07
2023-04-12T12:08:52.971Z,7.47
2023-04-12T12:11:21.931Z,5.38
2023-04-12T12:13:50.570Z,6.20
2023-04-12T12:16:18.887Z,8.43
2023-04-12T12:18:51.768Z,5.63
2023-04-12T12:21:20.895Z,8.77
2023-04-12T12:23:49.805Z,8.05
2023-04-12T12:26:22.600Z,12.25
2023-04-12T12:28:55.067Z,8.07
2023-04-12T12:31:24.870Z,9.73
2023-04-12T12:33:57.330Z,6.57
2023-04-12T12:36:32.317Z,7.38
2023-04-12T12:39:12.779Z,4.03
2023-04-12T12:41:40.725Z,7.55
2023-04-12T12:44:08.730Z,6.57
2023-04-12T12:49:06.536Z,8.40
2023-04-12T12:51:33.774Z,5.45
2023-04-12T12:54:01.373Z,9.07
2023-04-12T12:56:28.584Z,8.27
2023-04-12T12:58:56.040Z,5.68
2023-04-12T13:01:23.633Z,17.10
2023-04-12T13:03:51.364Z,9.88
2023-04-12T13:06:19.040Z,9.65
2023-04-12T13:08:46.752Z,7.88
2023-04-12T13:11:15.815Z,9.15
2023-04-12T13:13:44.270Z,12.95
2023-04-12T13:16:11.608Z,12.55
2023-04-12T13:18:38.932Z,6.18
2023-04-12T13:21:07.694Z,9.77
2023-04-12T13:23:35.073Z,11.68
2023-04-12T13:26:02.355Z,15.90
2023-04-12T13:28:29.509Z,14.00
2023-04-12T13:30:57.382Z,12.18
2023-04-12T13:33:24.785Z,10.32
2023-04-12T13:35:52.041Z,14.52
2023-04-12T13:38:19.378Z,17.52
2023-04-12T13:40:46.688Z,15.05
2023-04-12T13:43:14.017Z,13.88
2023-04-12T13:45:41.634Z,16.10
2023-04-12T13:48:09.628Z,15.48
2023-04-12T13:50:37.071Z,17.75
2023-04-12T13:53:04.825Z,14.00
2023-04-12T13:55:32.028Z,12.90
2023-04-12T13:57:59.236Z,9.73
2023-04-12T14:00:27.284Z,17.23
2023-04-12T14:02:54.753Z,12.30
2023-04-12T14:05:22.745Z,11.50
2023-04-12T14:07:53.642Z,8.07
2023-04-12T14:10:20.966Z,11.48
2023-04-12T14:12:48.185Z,11.05
2023-04-12T14:15:15.424Z,10.90
2023-04-12T14:17:42.710Z,11.55
2023-04-12T14:20:10.700Z,10.48
2023-04-12T14:22:38.189Z,13.40
2023-04-12T14:25:06.490Z,15.82
2023-04-12T14:27:35.385Z,12.40
2023-04-12T14:30:03.079Z,13.48
2023-04-12T14:32:30.498Z,13.05
2023-04-12T14:34:57.989Z,12.10
2023-04-12T14:37:25.553Z,13.20
2023-04-12T14:39:56.215Z,11.48
2023-04-12T14:44:50.914Z,9.40
2023-04-12T14:47:18.459Z,12.85
2023-04-12T14:49:45.924Z,17.67
2023-04-12T14:52:13.251Z,15.32
2023-04-12T14:54:40.609Z,9.63
2023-04-12T14:57:07.905Z,17.27
2023-04-12T14:59:35.170Z,11.48
2023-04-12T15:02:02.698Z,13.90
2023-04-12T15:04:30.378Z,16.70
2023-04-12T15:06:57.893Z,9.45
2023-04-12T15:09:26.300Z,15.77
2023-04-12T15:12:01.492Z,14.65
2023-04-12T15:14:29.037Z,11.82
2023-04-12T15:16:57.266Z,17.70
2023-04-12T15:19:24.510Z,16.50
2023-04-12T15:21:52.360Z,14.48
2023-04-12T15:24:20.887Z,15.90
2023-04-12T15:26:50.252Z,11.80
2023-04-12T15:29:18.831Z,10.07
2023-04-12T15:31:46.155Z,13.65
2023-04-12T15:34:13.500Z,15.15
2023-04-12T15:36:43.112Z,10.73
2023-04-12T15:39:12.670Z,12.80
2023-04-12T15:41:41.804Z,10.15
2023-04-12T15:44:11.891Z,10.07
2023-04-12T15:46:42.696Z,11.52
2023-04-12T15:49:11.011Z,15.18
2023-04-12T15:51:39.029Z,10.45
2023-04-12T15:54:06.631Z,18.25
2023-04-12T15:56:35.205Z,14.02
2023-04-12T15:59:02.981Z,15.45
2023-04-12T16:01:30.618Z,14.63
2023-04-12T16:03:58.057Z,19.33
2023-04-12T16:06:25.628Z,10.48
2023-04-12T16:08:57.862Z,16.40
2023-04-12T16:11:25.323Z,13.50
2023-04-12T16:13:54.124Z,10.45
2023-04-12T16:16:23.733Z,12.02
2023-04-12T16:18:52.758Z,13.03
2023-04-12T16:21:21.555Z,9.98
2023-04-12T16:23:50.551Z,13.85
2023-04-12T16:26:21.984Z,16.52
2023-04-12T16:28:55.955Z,11.23
2023-04-12T16:31:25.710Z,10.93
2023-04-12T16:33:53.640Z,10.25
2023-04-12T16:36:23.437Z,10.48
2023-04-12T16:38:54.600Z,15.77
2023-04-12T16:41:21.873Z,10.70
2023-04-12T16:43:52.907Z,9.52
2023-04-12T16:46:23.630Z,13.82
2023-04-12T16:51:18.280Z,11.30
2023-04-12T16:53:45.649Z,10.93
2023-04-12T16:56:12.882Z,7.45
2023-04-12T16:58:40.125Z,11.50
2023-04-12T17:01:07.991Z,14.30
2023-04-12T17:03:36.001Z,10.80
2023-04-12T17:06:04.451Z,14.43
2023-04-12T17:08:31.843Z,13.80
2023-04-12T17:10:59.250Z,11.15
2023-04-12T17:13:26.784Z,8.93
2023-04-12T17:15:54.116Z,13.27
2023-04-12T17:18:21.567Z,10.90
2023-04-12T17:20:49.041Z,16.23
2023-04-12T17:23:16.338Z,12.73
2023-04-12T17:25:43.866Z,11.90
2023-04-12T17:28:11.492Z,12.27
2023-04-12T17:30:38.867Z,8.73
2023-04-12T17:33:07.918Z,9.20
2023-04-12T17:35:35.564Z,8.63
2023-04-12T17:38:02.936Z,10.52
2023-04-12T17:40:30.378Z,8.93
2023-04-12T17:42:57.672Z,14.80
2023-04-12T17:45:25.404Z,8.50
2023-04-12T17:47:52.731Z,6.10
2023-04-12T17:50:20.200Z,11.20
2023-04-12T17:52:47.594Z,10.20
2023-04-12T17:55:15.840Z,10.85
2023-04-12T17:57:44.366Z,7.93
2023-04-12T18:00:12.253Z,9.75
2023-04-12T18:02:46.732Z,6.60
2023-04-12T18:05:14.336Z,6.07
2023-04-12T18:07:42.497Z,10.10
2023-04-12T18:10:13.027Z,10.32
2023-04-12T18:12:40.893Z,11.20
2023-04-12T18:15:08.897Z,6.05
2023-04-12T18:17:36.393Z,4.50
2023-04-12T18:20:08.785Z,9.70
2023-04-12T18:22:36.558Z,8.85
2023-04-12T18:25:04.418Z,7.80
2023-04-12T18:27:32.114Z,8.48
2023-04-12T18:30:01.351Z,10.43
2023-04-12T18:32:28.958Z,6.55
2023-04-12T18:34:56.304Z,5.30
2023-04-12T18:37:23.612Z,9.95
2023-04-12T18:39:53.190Z,7.15
2023-04-12T18:42:20.866Z,8.60
2023-04-12T18:44:48.138Z,4.55
2023-04-12T18:47:15.484Z,9.43
2023-04-12T18:49:43.343Z,8.10
2023-04-12T18:52:10.622Z,6.72
2023-04-12T18:54:37.860Z,9.77
2023-04-12T18:57:05.126Z,7.75
2023-04-12T18:59:32.659Z,5.75
2023-04-12T19:02:00.221Z,10.10
2023-04-12T19:04:27.984Z,7.72
2023-04-12T19:06:56.003Z,6.13
2023-04-12T19:09:23.301Z,5.70
2023-04-12T19:11:50.788Z,10.35
2023-04-12T19:14:17.980Z,7.32
2023-04-12T19:16:45.258Z,7.18
2023-04-12T19:19:12.670Z,7.53
2023-04-12T19:21:39.948Z,10.45
2023-04-12T19:24:07.716Z,7.13
2023-04-12T19:26:38.737Z,8.30
2023-04-12T19:29:06.097Z,6.82
2023-04-12T19:31:35.167Z,9.75
2023-04-12T19:34:02.786Z,7.18
2023-04-12T19:36:30.127Z,9.00
2023-04-12T19:38:58.028Z,8.18
2023-04-12T19:41:25.943Z,7.63
2023-04-12T19:43:54.570Z,6.95
2023-04-12T19:46:22.339Z,7.63
2023-04-12T19:48:49.770Z,5.00
2023-04-12T19:51:17.196Z,10.45
2023-04-12T19:53:46.261Z,8.38
2023-04-12T19:56:15.045Z,8.48
2023-04-12T19:58:42.920Z,7.78
2023-04-12T20:01:10.363Z,8.55
2023-04-12T20:03:38.882Z,9.55
2023-04-12T20:06:06.290Z,13.40
2023-04-12T20:08:33.653Z,10.82
2023-04-12T20:11:02.170Z,9.02
2023-04-12T20:13:30.828Z,11.55
2023-04-12T20:16:00.953Z,9.65
2023-04-12T20:18:29.614Z,13.25
2023-04-12T20:20:59.835Z,11.07
2023-04-12T20:23:27.691Z,10.95
2023-04-12T20:25:55.590Z,10.27
2023-04-12T20:28:24.067Z,11.80
2023-04-12T20:30:51.339Z,10.60
2023-04-12T20:33:19.938Z,13.18
2023-04-12T20:35:47.216Z,10.10
2023-04-12T20:38:15.116Z,14.68
2023-04-12T20:40:42.433Z,8.80
2023-04-12T20:43:10.500Z,10.73
2023-04-12T20:45:38.098Z,9.10
2023-04-12T20:48:05.784Z,14.20
2023-04-12T20:50:33.054Z,15.55
2023-04-12T20:53:00.310Z,6.20
2023-04-12T20:55:32.889Z,5.95
2023-04-12T20:58:01.047Z,8.30
2023-04-12T21:00:29.523Z,7.35
2023-04-12T21:02:58.441Z,10.48
2023-04-12T21:05:27.304Z,9.27
2023-04-12T21:07:55.297Z,9.48
2023-04-12T21:10:22.742Z,6.25
2023-04-12T21:12:50.148Z,3.92
2023-04-12T21:15:21.902Z,4.22
2023-04-12T21:17:50.847Z,10.48
2023-04-12T21:20:18.987Z,5.22
2023-04-12T21:22:47.815Z,7.10
2023-04-12T21:25:16.795Z,5.85
2023-04-12T21:27:46.144Z,4.03
2023-04-12T21:30:14.124Z,4.68
2023-04-12T21:32:42.789Z,9.35
2023-04-12T21:35:11.274Z,7.13
2023-04-12T21:37:39.407Z,9.02
2023-04-12T21:40:12.780Z,6.22
2023-04-12T21:42:41.280Z,4.38
2023-04-12T21:45:09.795Z,4.72
2023-04-12T21:47:40.743Z,8.10
2023-04-12T21:50:11.825Z,5.22
2023-04-12T21:52:40.422Z,6.63
2023-04-12T21:55:08.088Z,6.43
2023-04-12T21:57:36.159Z,4.78
2023-04-12T22:00:05.705Z,3.08
2023-04-12T22:02:39.239Z,2.83
2023-04-12T22:05:07.161Z,2.63
2023-04-12T22:07:34.506Z,2.15
2023-04-12T22:10:02.709Z,4.07
2023-04-12T22:12:30.054Z,2.38
2023-04-12T22:14:57.722Z,2.30
2023-04-12T22:17:25.624Z,3.92
2023-04-12T22:19:56.545Z,3.30
2023-04-12T22:22:25.042Z,4.63
2023-04-12T22:24:54.006Z,2.10
2023-04-12T22:27:21.399Z,2.78
2023-04-12T22:29:50.051Z,1.88
2023-04-12T22:32:17.358Z,4.03
2023-04-12T22:34:45.036Z,1.95
2023-04-12T22:37:13.739Z,2.60
2023-04-12T22:39:41.062Z,2.72
2023-04-12T22:42:08.452Z,2.72
2023-04-12T22:44:38.408Z,4.63
2023-04-12T22:47:09.008Z,4.60
2023-04-12T22:49:46.443Z,5.38
2023-04-12T22:52:13.685Z,3.00
2023-04-12T22:54:41.194Z,3.35
2023-04-12T22:57:08.628Z,3.00
2023-04-12T22:59:36.195Z,4.05
2023-04-12T23:02:03.548Z,4.90
2023-04-12T23:04:30.902Z,2.83
2023-04-12T23:06:58.070Z,4.10
2023-04-12T23:09:25.641Z,5.40
2023-04-12T23:11:53.315Z,4.35
2023-04-12T23:14:20.716Z,5.10
2023-04-12T23:16:51.609Z,4.45
2023-04-12T23:19:18.951Z,3.97
2023-04-12T23:21:46.184Z,4.18
2023-04-12T23:24:15.568Z,3.95
2023-04-12T23:26:45.219Z,3.10
2023-04-12T23:29:13.250Z,3.22
2023-04-12T23:31:41.520Z,2.70
2023-04-12T23:34:08.960Z,4.15
2023-04-12T23:36:36.284Z,4.05
2023-04-12T23:39:10.260Z,2.90
2023-04-12T23:41:38.347Z,5.50
2023-04-12T23:44:05.633Z,6.70
2023-04-12T23:46:32.932Z,3.00
2023-04-12T23:49:00.257Z,6.22
2023-04-12T23:51:27.978Z,2.92
2023-04-12T23:53:55.392Z,8.25
2023-04-12T23:56:22.623Z,2.88
2023-04-12T23:58:49.994Z,3.40
